AirNav   Air Wisconsin Up To $57,000 Bonus
 
 1065 users online  

FA91 Orange County Convention Center Heliport
Orlando, Florida, USA

GOING TO ORLANDO?


FAA INFORMATION EFFECTIVE 07 NOVEMBER 2019

Location

FAA Identifier: FA91
Lat/Long: 28-25-51.0400N 081-27-22.6700W
28-25.850667N 081-27.377833W
28.4308444,-81.4562972
(estimated)
Elevation: 92 ft. / 28 m (estimated)
From city: 8 miles SW of ORLANDO, FL
Time zone: UTC -5 (UTC -4 during Daylight Saving Time)
Zip code: 32819

Heliport Operations

Heliport use: Private use. Permission required prior to landing
Activation date: 10/2017
Control tower: no
ARTCC: JACKSONVILLE CENTER
FSS: SAINT PETERSBURG FLIGHT SERVICE STATION
Attendance: 
Wind indicator: lighted
Segmented circle: no

Heliport Communications

WX ASOS at MCO (8 nm E): PHONE 407-855-5235
WX AWOS-3PT at ISM (9 nm S): 128.775 (407-847-0533)
WX ASOS at ORL (9 nm NE): PHONE 407-658-6753

Nearby radio navigation aids

VOR radial/distance  VOR name  Freq  Var
ORLr224/9.3ORLANDO VORTAC112.2000E
LALr047/39.8LAKELAND VORTAC116.0001E

Heliport Services

Runway Information

Helipad H1

Dimensions: 62 x 62 ft. / 19 x 19 m
Surface: concrete, in good condition
Runway edge lights: PERI
Latitude: 28-25.850667N
Longitude: 081-27.377833W
Elevation: 92.0 ft.
Traffic pattern: leftleft
Markings: NSTD

Heliport Ownership and Management from official FAA records

Ownership: Privately-owned
Owner: ORANGE COUNTY CONVENTION CENTER
9400 UNIVERSAL BLVD
ORLANDO, FL 32819
Manager: HECTOR CLEMENTE
P.O. BOX 691509
ORLANDO, FL 32869-1509
Phone (407) 685-7112

Additional Remarks

FOR CD CTC ORLANDO APCH AT 407-852-7553.

Instrument Procedures

There are no published instrument procedures at FA91.

Some nearby airports with instrument procedures:

KMCO - Orlando International Airport (8 nm E)
KISM - Kissimmee Gateway Airport (9 nm S)
KORL - Executive Airport (9 nm NE)
X04 - Orlando Apopka Airport (18 nm N)
KSFB - Orlando Sanford International Airport (24 nm NE)
 
Loc | Ops | Rwys | IFR | FBO | Links
Com | Nav | Svcs | Stats | Notes
Aerial photo
No photo
 
Airport distance calculator
Flying to Orange County Convention Center Heliport? Find the distance to fly.

From to FA91

Sunrise and sunset
Times for 21-Nov-2019
 Local
(UTC-5)
 Zulu
(UTC)
Morning civil twilight06:2911:29
Sunrise06:5411:54
Sunset17:3022:30
Evening civil twilight17:5522:55

Current date and time
Zulu (UTC)  22-Nov-2019 00:50:01
Local (UTC-5)  21-Nov-2019 19:50:01
 
METAR
KMCO 
7nm E 
212353Z 05009KT 10SM FEW250 20/13 A3018 RMK AO2 SLP217 T02000128 10256 20200 53007
KISM 
9nm S 
212356Z 08006KT 10SM CLR 19/14 A3018 RMK AO2 SLP221 T01940139 10256 20194 53008
KORL 
10nm NE 
212353Z 06005KT 10SM CLR 20/13 A3018 RMK AO2 SLP223 T02000128 10256 20194 52007
TAF
KMCO 
7nm E 
212052Z 2121/2224 07008KT P6SM SCT060 FM220300 VRB03KT P6SM FEW250 FM221500 15006KT P6SM FEW040 SCT250
KISM 
9nm S 
211732Z 2118/2218 07008KT P6SM SCT040 FM220000 VRB03KT P6SM FEW250 FM221500 14004KT P6SM FEW040 SCT250
NOTAMs
Click for the latest NOTAMs
NOTAMs are issued by the DoD/FAA and will open in a separate window not controlled by AirNav.

 

 
 

Would you like to see your business listed on this page?

 If your business provides an interesting product or service to pilots, flight crews, aircraft, or users of the Orange County Convention Center Heliport, you should consider listing it here.  To start the listing process, click on the button below
 
Add a business
 

Other Pages about Orange County Convention Center Heliport

Update a link
 
Copyright © AirNav, LLC. All rights reserved. Privacy Policy  Contact